createdAt,value
2019-05-26T00:02:45.373Z,15.50
2019-05-26T00:07:03.789Z,15.50
2019-05-26T00:11:22.426Z,15.50
2019-05-26T00:15:41.151Z,15.50
2019-05-26T00:19:59.256Z,15.50
2019-05-26T00:24:17.840Z,15.40
2019-05-26T00:28:36.131Z,15.40
2019-05-26T00:32:55.369Z,15.40
2019-05-26T00:37:13.983Z,15.40
2019-05-26T00:41:32.459Z,15.30
2019-05-26T00:45:50.632Z,15.20
2019-05-26T00:50:11.365Z,15.20
2019-05-26T00:54:29.601Z,15.20
2019-05-26T00:58:48.073Z,15.10
2019-05-26T01:03:06.320Z,15.00
2019-05-26T01:07:24.622Z,15.00
2019-05-26T01:11:43.284Z,15.00
2019-05-26T01:16:01.937Z,14.90
2019-05-26T01:20:20.848Z,14.90
2019-05-26T01:24:39.370Z,14.90
2019-05-26T01:28:57.507Z,14.80
2019-05-26T01:33:15.670Z,14.80
2019-05-26T01:37:34.573Z,14.70
2019-05-26T01:41:53.105Z,14.70
2019-05-26T01:46:11.316Z,14.70
2019-05-26T01:50:29.783Z,14.60
2019-05-26T01:54:48.749Z,14.60
2019-05-26T01:59:08.031Z,14.60
2019-05-26T02:03:26.005Z,14.50
2019-05-26T02:07:44.758Z,14.50
2019-05-26T02:12:03.099Z,14.40
2019-05-26T02:16:21.223Z,14.40
2019-05-26T02:20:39.405Z,14.40
2019-05-26T02:24:57.680Z,14.30
2019-05-26T02:29:15.867Z,14.30
2019-05-26T02:33:34.314Z,14.30
2019-05-26T02:37:52.518Z,14.30
2019-05-26T02:42:10.633Z,14.30
2019-05-26T02:46:29.173Z,14.20
2019-05-26T02:50:47.497Z,14.20
2019-05-26T02:55:05.847Z,14.20
2019-05-26T02:59:24.359Z,14.10
2019-05-26T03:03:42.872Z,14.20
2019-05-26T03:08:02.926Z,14.10
2019-05-26T03:12:25.137Z,14.10
2019-05-26T03:16:46.744Z,14.10
2019-05-26T03:21:06.077Z,14.00
2019-05-26T03:25:24.550Z,14.00
2019-05-26T03:29:42.666Z,14.00
2019-05-26T03:34:01.084Z,14.00
2019-05-26T03:38:19.297Z,14.00
2019-05-26T03:42:37.454Z,14.00
2019-05-26T03:46:56.963Z,13.90
2019-05-26T03:51:15.761Z,13.90
2019-05-26T03:55:33.995Z,13.90
2019-05-26T03:59:52.505Z,14.00
2019-05-26T04:04:10.647Z,14.10
2019-05-26T04:08:28.745Z,14.30
2019-05-26T04:12:46.873Z,14.60
2019-05-26T04:17:05.117Z,14.80
2019-05-26T04:21:23.335Z,15.20
2019-05-26T04:25:41.461Z,15.50
2019-05-26T04:30:00.325Z,15.90
2019-05-26T04:34:18.738Z,16.30
2019-05-26T04:38:36.890Z,16.70
2019-05-26T04:42:54.991Z,17.10
2019-05-26T04:47:13.249Z,17.50
2019-05-26T04:51:32.082Z,17.90
2019-05-26T04:55:50.581Z,18.30
2019-05-26T05:00:10.680Z,18.70
2019-05-26T05:04:29.712Z,19.10
2019-05-26T05:08:47.989Z,19.50
2019-05-26T05:13:06.004Z,19.80
2019-05-26T05:17:24.574Z,20.20
2019-05-26T05:21:42.784Z,20.60
2019-05-26T05:26:00.966Z,21.00
2019-05-26T05:30:20.960Z,21.40
2019-05-26T05:34:40.012Z,21.80
2019-05-26T05:38:58.240Z,22.30
2019-05-26T05:43:16.652Z,22.80
2019-05-26T05:47:34.793Z,23.30
2019-05-26T05:51:53.363Z,23.70
2019-05-26T05:56:11.546Z,24.20
2019-05-26T06:00:29.938Z,24.60
2019-05-26T06:04:48.125Z,25.10
2019-05-26T06:09:07.719Z,25.60
2019-05-26T06:13:25.853Z,26.10
2019-05-26T06:17:44.018Z,26.60
2019-05-26T06:22:02.174Z,27.10
2019-05-26T06:26:21.136Z,27.50
2019-05-26T06:30:39.260Z,27.90
2019-05-26T06:34:57.930Z,28.50
2019-05-26T06:39:16.188Z,28.50
2019-05-26T06:43:34.335Z,28.80
2019-05-26T06:47:52.432Z,29.00
2019-05-26T06:52:11.093Z,29.20
2019-05-26T06:56:29.557Z,29.30
2019-05-26T07:00:47.686Z,29.50
2019-05-26T07:05:06.304Z,29.70
2019-05-26T07:09:24.580Z,29.90
2019-05-26T07:13:42.934Z,30.20
2019-05-26T07:18:01.116Z,30.40
2019-05-26T07:22:20.529Z,30.80
2019-05-26T07:26:38.731Z,31.00
2019-05-26T07:30:56.983Z,31.10
2019-05-26T07:35:15.596Z,31.10
2019-05-26T07:39:34.219Z,31.20
2019-05-26T07:43:53.011Z,31.50
2019-05-26T07:48:11.314Z,31.70
2019-05-26T07:52:29.833Z,32.00
2019-05-26T07:56:48.278Z,32.10
2019-05-26T08:01:06.450Z,32.10
2019-05-26T08:05:25.655Z,32.10
2019-05-26T08:09:44.252Z,32.20
2019-05-26T08:14:02.476Z,32.30
2019-05-26T08:18:20.669Z,32.50
2019-05-26T08:22:39.705Z,32.70
2019-05-26T08:26:57.904Z,32.90
2019-05-26T08:31:16.202Z,33.10
2019-05-26T08:35:34.373Z,33.30
2019-05-26T08:39:52.654Z,33.40
2019-05-26T08:44:10.962Z,33.50
2019-05-26T08:48:30.210Z,33.60
2019-05-26T08:52:48.471Z,33.70
2019-05-26T08:57:06.868Z,33.60
2019-05-26T09:01:25.831Z,33.40
2019-05-26T09:05:44.408Z,33.40
2019-05-26T09:10:03.420Z,33.50
2019-05-26T09:14:25.381Z,33.70
2019-05-26T09:18:42.212Z,33.80
2019-05-26T09:23:00.686Z,33.90
2019-05-26T09:27:19.031Z,34.00
2019-05-26T09:31:37.501Z,34.10
2019-05-26T09:35:55.777Z,34.20
2019-05-26T09:40:15.001Z,34.40
2019-05-26T09:44:34.806Z,34.60
2019-05-26T09:48:53.878Z,34.70
2019-05-26T09:53:12.608Z,34.80
2019-05-26T09:57:30.857Z,34.80
2019-05-26T10:01:49.411Z,34.90
2019-05-26T10:06:07.961Z,34.90
2019-05-26T10:10:27.005Z,35.10
2019-05-26T10:14:47.737Z,35.20
2019-05-26T10:19:05.329Z,35.00
2019-05-26T10:23:23.634Z,34.70
2019-05-26T10:27:42.053Z,34.20
2019-05-26T10:32:01.540Z,34.00
2019-05-26T10:36:19.889Z,33.80
2019-05-26T10:40:38.011Z,33.80
2019-05-26T10:44:56.372Z,33.60
2019-05-26T10:49:14.513Z,33.20
2019-05-26T10:53:34.205Z,32.50
2019-05-26T10:57:52.401Z,31.70
2019-05-26T11:02:10.565Z,30.90
2019-05-26T11:06:29.138Z,30.10
2019-05-26T11:10:47.458Z,29.50
2019-05-26T11:15:06.774Z,28.90
2019-05-26T11:19:25.516Z,28.50
2019-05-26T11:23:44.039Z,28.20
2019-05-26T11:28:02.314Z,28.00
2019-05-26T11:32:20.570Z,27.80
2019-05-26T11:36:39.248Z,27.70
2019-05-26T11:40:58.568Z,27.90
2019-05-26T11:45:19.116Z,28.00
2019-05-26T11:49:37.707Z,28.00
2019-05-26T11:53:55.856Z,28.10
2019-05-26T11:58:14.339Z,28.40
2019-05-26T12:02:32.414Z,28.90
2019-05-26T12:06:50.718Z,29.30
2019-05-26T12:11:08.946Z,29.80
2019-05-26T12:15:27.520Z,30.20
2019-05-26T12:19:46.087Z,30.30
2019-05-26T12:24:04.717Z,30.30
2019-05-26T12:28:22.866Z,30.20
2019-05-26T12:32:41.169Z,30.10
2019-05-26T12:36:59.363Z,30.10
2019-05-26T12:41:18.270Z,29.90
2019-05-26T12:45:37.265Z,29.80
2019-05-26T12:49:56.031Z,29.70
2019-05-26T12:54:15.291Z,29.70
2019-05-26T12:58:33.629Z,29.80
2019-05-26T13:02:51.925Z,30.10
2019-05-26T13:07:10.442Z,30.30
2019-05-26T13:11:28.728Z,30.30
2019-05-26T13:15:47.042Z,30.30
2019-05-26T13:20:05.964Z,30.10
2019-05-26T13:24:24.519Z,29.90
2019-05-26T13:28:42.992Z,29.70
2019-05-26T13:33:01.134Z,29.50
2019-05-26T13:37:19.647Z,29.40
2019-05-26T13:41:37.885Z,29.30
2019-05-26T13:45:56.850Z,29.20
2019-05-26T13:50:15.909Z,29.10
2019-05-26T13:54:35.441Z,28.90
2019-05-26T13:58:53.709Z,28.60
2019-05-26T14:03:13.654Z,28.30
2019-05-26T14:07:31.911Z,27.90
2019-05-26T14:11:50.040Z,27.70
2019-05-26T14:16:08.183Z,27.50
2019-05-26T14:20:40.123Z,27.20
2019-05-26T14:24:58.532Z,27.00
2019-05-26T14:29:16.886Z,26.90
2019-05-26T14:33:35.634Z,26.70
2019-05-26T14:37:54.922Z,26.60
2019-05-26T14:42:13.734Z,26.50
2019-05-26T14:46:32.527Z,26.40
2019-05-26T14:50:51.439Z,26.40
2019-05-26T14:55:11.627Z,26.30
2019-05-26T14:59:30.003Z,26.30
2019-05-26T15:03:49.499Z,26.30
2019-05-26T15:08:07.739Z,26.30
2019-05-26T15:12:27.193Z,26.30
2019-05-26T15:16:46.478Z,26.30
2019-05-26T15:21:05.559Z,26.20
2019-05-26T15:25:24.695Z,26.10
2019-05-26T15:29:44.256Z,26.00
2019-05-26T15:34:04.348Z,26.00
2019-05-26T15:38:23.756Z,26.00
2019-05-26T15:42:44.225Z,26.00
2019-05-26T15:47:03.650Z,26.00
2019-05-26T15:51:22.663Z,26.00
2019-05-26T15:55:42.116Z,26.00
2019-05-26T16:00:00.832Z,25.90
2019-05-26T16:04:19.834Z,25.90
2019-05-26T16:08:38.606Z,25.80
2019-05-26T16:12:57.195Z,25.80
2019-05-26T16:17:16.508Z,25.70
2019-05-26T16:21:34.806Z,25.80
2019-05-26T16:25:53.159Z,25.80
2019-05-26T16:30:12.432Z,25.70
2019-05-26T16:34:30.765Z,25.70
2019-05-26T16:38:49.284Z,25.70
2019-05-26T16:43:07.742Z,25.60
2019-05-26T16:47:26.175Z,25.60
2019-05-26T16:51:44.790Z,25.50
2019-05-26T16:56:03.078Z,25.40
2019-05-26T17:00:21.902Z,25.40
2019-05-26T17:04:40.536Z,25.40
2019-05-26T17:09:00.327Z,25.40
2019-05-26T17:13:19.929Z,25.40
2019-05-26T17:17:38.108Z,25.30
2019-05-26T17:21:56.337Z,25.20
2019-05-26T17:26:16.111Z,25.10
2019-05-26T17:30:34.265Z,25.00
2019-05-26T17:34:52.830Z,24.80
2019-05-26T17:39:11.181Z,24.70
2019-05-26T17:43:29.467Z,24.60
2019-05-26T17:47:48.119Z,24.50
2019-05-26T17:52:06.657Z,24.40
2019-05-26T17:56:24.893Z,24.30
2019-05-26T18:00:43.331Z,24.30
2019-05-26T18:05:02.421Z,24.20
2019-05-26T18:09:21.245Z,24.10
2019-05-26T18:13:39.395Z,24.00
2019-05-26T18:17:57.676Z,23.90
2019-05-26T18:22:16.169Z,23.80
2019-05-26T18:26:34.447Z,23.70
2019-05-26T18:30:53.530Z,23.60
2019-05-26T18:35:12.348Z,23.50
2019-05-26T18:39:30.786Z,23.40
2019-05-26T18:43:49.391Z,23.30
2019-05-26T18:48:07.572Z,23.30
2019-05-26T18:52:25.949Z,23.20
2019-05-26T18:56:44.201Z,23.10
2019-05-26T19:01:02.325Z,23.00
2019-05-26T19:05:32.895Z,22.90
2019-05-26T19:09:41.663Z,22.80
2019-05-26T19:14:00.017Z,22.70
2019-05-26T19:18:20.267Z,22.50
2019-05-26T19:22:38.614Z,22.30
2019-05-26T19:26:57.188Z,22.20
2019-05-26T19:31:15.978Z,22.10
2019-05-26T19:35:34.313Z,22.00
2019-05-26T19:39:53.075Z,21.80
2019-05-26T19:44:11.239Z,21.70
2019-05-26T19:48:37.028Z,21.60
2019-05-26T19:52:53.300Z,21.50
2019-05-26T19:57:12.026Z,21.40
2019-05-26T20:01:30.544Z,21.30
2019-05-26T20:05:49.514Z,21.30
2019-05-26T20:10:10.532Z,21.20
2019-05-26T20:14:29.565Z,21.10
2019-05-26T20:18:48.196Z,21.10
2019-05-26T20:23:06.486Z,21.00
2019-05-26T20:27:25.937Z,20.90
2019-05-26T20:31:44.585Z,20.90
2019-05-26T20:36:03.540Z,20.80
2019-05-26T20:40:23.236Z,20.80
2019-05-26T20:44:42.018Z,20.80
2019-05-26T20:49:00.551Z,20.80
2019-05-26T20:53:19.912Z,20.80
2019-05-26T20:57:38.798Z,20.80
2019-05-26T21:01:57.239Z,20.70
2019-05-26T21:06:16.335Z,20.70
2019-05-26T21:10:35.175Z,20.70
2019-05-26T21:14:53.847Z,20.60
2019-05-26T21:19:12.402Z,20.60
2019-05-26T21:23:32.326Z,20.60
2019-05-26T21:27:51.132Z,20.60
2019-05-26T21:32:09.406Z,20.50
2019-05-26T21:36:27.709Z,20.50
2019-05-26T21:40:46.071Z,20.50
2019-05-26T21:45:04.347Z,20.40
2019-05-26T21:49:22.628Z,20.40
2019-05-26T21:53:40.884Z,20.30
2019-05-26T21:57:59.284Z,20.20
2019-05-26T22:02:17.506Z,20.10
2019-05-26T22:06:36.123Z,20.10
2019-05-26T22:10:54.682Z,20.00
2019-05-26T22:15:15.914Z,19.90
2019-05-26T22:19:34.260Z,19.80
2019-05-26T22:23:52.939Z,19.70
2019-05-26T22:28:11.544Z,19.60
2019-05-26T22:32:29.688Z,19.60
2019-05-26T22:36:47.984Z,19.60
2019-05-26T22:41:06.197Z,19.50
2019-05-26T22:45:24.400Z,19.50
2019-05-26T22:49:42.944Z,19.40
2019-05-26T22:54:01.080Z,19.30
2019-05-26T22:58:19.282Z,19.30
2019-05-26T23:02:37.432Z,19.20
2019-05-26T23:06:55.582Z,19.10
2019-05-26T23:11:14.249Z,19.00
2019-05-26T23:15:33.085Z,18.90
2019-05-26T23:19:51.463Z,18.80
2019-05-26T23:24:09.766Z,18.80
2019-05-26T23:28:27.869Z,18.70
2019-05-26T23:32:47.186Z,18.60
2019-05-26T23:37:05.789Z,18.60
2019-05-26T23:41:23.882Z,18.60
2019-05-26T23:45:43.113Z,18.50
2019-05-26T23:50:01.996Z,18.50
2019-05-26T23:54:20.344Z,18.40
2019-05-26T23:58:38.524Z,18.30
